CheckWX is a tool to help pilots better visualize weather data.  It is not intended as a substitute for an official pre-flight weather briefing.

14:47:33 UTC

KNDZ METAR
Whiting Field NAS South Airport
Milton, Florida, USA
Current

52 mins ago

KNDZ 261356Z 34011G19KT 10SM SCT018 19/16 A2994 RMK AO2 SLP123 T01940161 $
Observed
Apr-26 @ 13:56 UTC
Wind
  • 340° at 11 KTS
  • Gusting to 19 KTS
Visibility
10 SM
Flight Rules
VFR
Cloud Levels
  • Scattered at 1,800' AGL
Temperature
19°C / 66°F
Dewpoint
16°C / 61°F
Humidity
83%
Altimeter
29.94" Hg
Pressure
1013.92 hPa
Previous

1 hour ago

KNDZ 261344Z 33009G15KT 10SM SCT018 19/17 A2993 RMK AO2 T01890167 $
Observed
Apr-26 @ 13:44 UTC
Wind
  • 330° at 9 KTS
  • Gusting to 15 KTS
Visibility
10 SM
Flight Rules
VFR
Cloud Levels
  • Scattered at 1,800' AGL
Temperature
19°C / 66°F
Dewpoint
17°C / 63°F
Humidity
88%
Altimeter
29.93" Hg
Pressure
1013.52 hPa
Previous

2 hours ago

KNDZ 261256Z 34011KT 10SM BKN016 18/17 A2991 RMK AO2 SLP115 T01780167 $
Observed
Apr-26 @ 12:56 UTC
Wind
  • 340° at 11 KTS
Visibility
10 SM
Flight Rules
MVFR
Cloud Levels
  • Broken at 1,600' AGL
Temperature
18°C / 64°F
Dewpoint
17°C / 63°F
Humidity
94%
Altimeter
29.91" Hg
Pressure
1012.92 hPa